sensor_id;sensor_type;location;lat;lon;timestamp;temperature;humidity
21734;DHT22;11029;47.820;10.534;2024-01-25T00:02:37;6.20;79.80
21734;DHT22;11029;47.820;10.534;2024-01-25T00:05:23;6.20;79.50
21734;DHT22;11029;47.820;10.534;2024-01-25T00:08:09;6.30;79.80
21734;DHT22;11029;47.820;10.534;2024-01-25T00:10:55;6.30;79.30
21734;DHT22;11029;47.820;10.534;2024-01-25T00:13:40;6.30;79.70
21734;DHT22;11029;47.820;10.534;2024-01-25T00:16:27;6.30;79.30
21734;DHT22;11029;47.820;10.534;2024-01-25T00:19:12;6.30;79.90
21734;DHT22;11029;47.820;10.534;2024-01-25T00:21:58;6.20;80.00
21734;DHT22;11029;47.820;10.534;2024-01-25T00:24:44;6.20;79.90
21734;DHT22;11029;47.820;10.534;2024-01-25T00:27:30;6.20;80.20
21734;DHT22;11029;47.820;10.534;2024-01-25T00:30:15;6.20;80.80
21734;DHT22;11029;47.820;10.534;2024-01-25T00:33:01;6.20;80.80
21734;DHT22;11029;47.820;10.534;2024-01-25T00:35:47;6.20;80.70
21734;DHT22;11029;47.820;10.534;2024-01-25T00:38:33;6.20;81.20
21734;DHT22;11029;47.820;10.534;2024-01-25T00:41:19;6.10;81.30
21734;DHT22;11029;47.820;10.534;2024-01-25T00:44:05;6.10;82.00
21734;DHT22;11029;47.820;10.534;2024-01-25T00:46:52;6.10;82.70
21734;DHT22;11029;47.820;10.534;2024-01-25T00:49:38;6.00;83.80
21734;DHT22;11029;47.820;10.534;2024-01-25T00:52:25;5.90;83.70
21734;DHT22;11029;47.820;10.534;2024-01-25T00:55:10;6.00;84.40
21734;DHT22;11029;47.820;10.534;2024-01-25T00:57:57;5.90;84.40
21734;DHT22;11029;47.820;10.534;2024-01-25T01:00:43;5.90;84.90
21734;DHT22;11029;47.820;10.534;2024-01-25T01:03:29;5.80;85.10
21734;DHT22;11029;47.820;10.534;2024-01-25T01:06:15;5.80;84.80
21734;DHT22;11029;47.820;10.534;2024-01-25T01:09:01;5.90;85.20
21734;DHT22;11029;47.820;10.534;2024-01-25T01:11:47;5.90;86.00
21734;DHT22;11029;47.820;10.534;2024-01-25T01:14:32;5.80;86.40
21734;DHT22;11029;47.820;10.534;2024-01-25T01:17:18;5.80;85.50
21734;DHT22;11029;47.820;10.534;2024-01-25T01:20:04;6.00;83.00
21734;DHT22;11029;47.820;10.534;2024-01-25T01:22:51;6.10;81.40
21734;DHT22;11029;47.820;10.534;2024-01-25T01:25:37;6.20;78.80
21734;DHT22;11029;47.820;10.534;2024-01-25T01:28:23;6.20;79.50
21734;DHT22;11029;47.820;10.534;2024-01-25T01:31:09;6.30;78.60
21734;DHT22;11029;47.820;10.534;2024-01-25T01:33:55;6.30;78.90
21734;DHT22;11029;47.820;10.534;2024-01-25T01:36:40;6.30;80.80
21734;DHT22;11029;47.820;10.534;2024-01-25T01:39:27;6.30;80.80
21734;DHT22;11029;47.820;10.534;2024-01-25T01:42:12;6.20;82.10
21734;DHT22;11029;47.820;10.534;2024-01-25T01:44:58;6.10;81.80
21734;DHT22;11029;47.820;10.534;2024-01-25T01:47:44;6.00;83.40
21734;DHT22;11029;47.820;10.534;2024-01-25T01:50:30;6.00;84.20
21734;DHT22;11029;47.820;10.534;2024-01-25T01:53:17;6.00;84.40
21734;DHT22;11029;47.820;10.534;2024-01-25T01:56:03;6.00;83.90
21734;DHT22;11029;47.820;10.534;2024-01-25T01:58:50;6.10;84.80
21734;DHT22;11029;47.820;10.534;2024-01-25T02:01:37;6.00;86.20
21734;DHT22;11029;47.820;10.534;2024-01-25T02:04:23;6.00;87.00
21734;DHT22;11029;47.820;10.534;2024-01-25T02:07:09;5.90;87.70
21734;DHT22;11029;47.820;10.534;2024-01-25T02:09:56;5.90;88.60
21734;DHT22;11029;47.820;10.534;2024-01-25T02:12:41;6.00;89.80
21734;DHT22;11029;47.820;10.534;2024-01-25T02:15:27;6.00;90.10
21734;DHT22;11029;47.820;10.534;2024-01-25T02:18:12;6.00;90.30
21734;DHT22;11029;47.820;10.534;2024-01-25T02:20:59;6.10;90.40
21734;DHT22;11029;47.820;10.534;2024-01-25T02:23:45;6.10;90.10
21734;DHT22;11029;47.820;10.534;2024-01-25T02:26:30;6.20;90.10
21734;DHT22;11029;47.820;10.534;2024-01-25T02:29:16;6.20;90.00
21734;DHT22;11029;47.820;10.534;2024-01-25T02:32:01;6.20;90.00
21734;DHT22;11029;47.820;10.534;2024-01-25T02:34:47;6.30;90.00
21734;DHT22;11029;47.820;10.534;2024-01-25T02:37:34;6.30;89.80
21734;DHT22;11029;47.820;10.534;2024-01-25T02:40:19;6.30;89.50
21734;DHT22;11029;47.820;10.534;2024-01-25T02:43:05;6.30;89.40
21734;DHT22;11029;47.820;10.534;2024-01-25T02:45:52;6.30;89.10
21734;DHT22;11029;47.820;10.534;2024-01-25T02:48:37;6.30;88.50
21734;DHT22;11029;47.820;10.534;2024-01-25T02:51:23;6.30;88.50
21734;DHT22;11029;47.820;10.534;2024-01-25T02:54:09;6.30;88.40
21734;DHT22;11029;47.820;10.534;2024-01-25T02:56:55;6.30;88.30
21734;DHT22;11029;47.820;10.534;2024-01-25T02:59:41;6.20;88.00
21734;DHT22;11029;47.820;10.534;2024-01-25T03:02:27;6.20;88.20
21734;DHT22;11029;47.820;10.534;2024-01-25T03:05:12;6.20;88.40
21734;DHT22;11029;47.820;10.534;2024-01-25T03:07:58;6.20;88.30
21734;DHT22;11029;47.820;10.534;2024-01-25T03:10:43;6.20;88.50
21734;DHT22;11029;47.820;10.534;2024-01-25T03:13:29;6.20;88.40
21734;DHT22;11029;47.820;10.534;2024-01-25T03:16:15;6.10;88.10
21734;DHT22;11029;47.820;10.534;2024-01-25T03:19:01;6.10;88.10
21734;DHT22;11029;47.820;10.534;2024-01-25T03:21:47;6.10;88.30
21734;DHT22;11029;47.820;10.534;2024-01-25T03:24:33;6.10;88.40
21734;DHT22;11029;47.820;10.534;2024-01-25T03:27:23;6.10;88.50
21734;DHT22;11029;47.820;10.534;2024-01-25T03:30:09;6.00;88.50
21734;DHT22;11029;47.820;10.534;2024-01-25T03:32:55;6.10;88.40
21734;DHT22;11029;47.820;10.534;2024-01-25T03:35:41;6.00;88.40
21734;DHT22;11029;47.820;10.534;2024-01-25T03:38:26;6.00;88.40
21734;DHT22;11029;47.820;10.534;2024-01-25T03:41:12;6.00;88.40
21734;DHT22;11029;47.820;10.534;2024-01-25T03:43:58;5.90;88.40
21734;DHT22;11029;47.820;10.534;2024-01-25T03:46:44;5.90;88.30
21734;DHT22;11029;47.820;10.534;2024-01-25T03:49:30;5.90;87.90
21734;DHT22;11029;47.820;10.534;2024-01-25T03:52:16;5.90;87.60
21734;DHT22;11029;47.820;10.534;2024-01-25T03:55:01;6.00;87.80
21734;DHT22;11029;47.820;10.534;2024-01-25T03:57:48;5.90;87.10
21734;DHT22;11029;47.820;10.534;2024-01-25T04:00:33;5.80;87.10
21734;DHT22;11029;47.820;10.534;2024-01-25T04:03:20;5.80;86.90
21734;DHT22;11029;47.820;10.534;2024-01-25T04:06:06;5.80;86.90
21734;DHT22;11029;47.820;10.534;2024-01-25T04:08:52;5.70;86.60
21734;DHT22;11029;47.820;10.534;2024-01-25T04:11:38;5.70;87.10
21734;DHT22;11029;47.820;10.534;2024-01-25T04:14:23;5.70;87.20
21734;DHT22;11029;47.820;10.534;2024-01-25T04:17:09;5.60;87.70
21734;DHT22;11029;47.820;10.534;2024-01-25T04:19:54;5.50;87.90
21734;DHT22;11029;47.820;10.534;2024-01-25T04:22:40;5.50;88.10
21734;DHT22;11029;47.820;10.534;2024-01-25T04:25:26;5.50;87.80
21734;DHT22;11029;47.820;10.534;2024-01-25T04:28:14;5.50;87.80
21734;DHT22;11029;47.820;10.534;2024-01-25T04:30:59;5.50;87.90
21734;DHT22;11029;47.820;10.534;2024-01-25T04:33:45;5.50;88.00
21734;DHT22;11029;47.820;10.534;2024-01-25T04:36:33;5.50;88.10
21734;DHT22;11029;47.820;10.534;2024-01-25T04:39:19;5.40;88.20
21734;DHT22;11029;47.820;10.534;2024-01-25T04:42:04;5.40;88.40
21734;DHT22;11029;47.820;10.534;2024-01-25T04:44:50;5.40;88.40
21734;DHT22;11029;47.820;10.534;2024-01-25T04:47:37;5.40;88.30
21734;DHT22;11029;47.820;10.534;2024-01-25T04:50:24;5.40;88.50
21734;DHT22;11029;47.820;10.534;2024-01-25T04:53:09;5.40;88.50
21734;DHT22;11029;47.820;10.534;2024-01-25T04:55:55;5.30;88.70
21734;DHT22;11029;47.820;10.534;2024-01-25T04:58:42;5.30;89.00
21734;DHT22;11029;47.820;10.534;2024-01-25T05:01:27;5.30;89.10
21734;DHT22;11029;47.820;10.534;2024-01-25T05:04:13;5.20;89.10
21734;DHT22;11029;47.820;10.534;2024-01-25T05:06:59;5.30;89.30
21734;DHT22;11029;47.820;10.534;2024-01-25T05:09:45;5.20;89.40
21734;DHT22;11029;47.820;10.534;2024-01-25T05:12:30;5.20;89.50
21734;DHT22;11029;47.820;10.534;2024-01-25T05:15:16;5.20;89.50
21734;DHT22;11029;47.820;10.534;2024-01-25T05:18:02;5.20;89.70
21734;DHT22;11029;47.820;10.534;2024-01-25T05:20:49;5.20;89.70
21734;DHT22;11029;47.820;10.534;2024-01-25T05:23:34;5.20;90.10
21734;DHT22;11029;47.820;10.534;2024-01-25T05:26:20;5.20;90.30
21734;DHT22;11029;47.820;10.534;2024-01-25T05:29:05;5.20;90.40
21734;DHT22;11029;47.820;10.534;2024-01-25T05:31:51;5.20;90.50
21734;DHT22;11029;47.820;10.534;2024-01-25T05:34:36;5.20;90.50
21734;DHT22;11029;47.820;10.534;2024-01-25T05:37:22;5.20;90.60
21734;DHT22;11029;47.820;10.534;2024-01-25T05:40:08;5.20;90.50
21734;DHT22;11029;47.820;10.534;2024-01-25T05:42:54;5.30;90.20
21734;DHT22;11029;47.820;10.534;2024-01-25T05:45:40;5.30;89.90
21734;DHT22;11029;47.820;10.534;2024-01-25T05:48:26;5.30;89.70
21734;DHT22;11029;47.820;10.534;2024-01-25T05:51:12;5.30;89.70
21734;DHT22;11029;47.820;10.534;2024-01-25T05:53:59;5.30;89.90
21734;DHT22;11029;47.820;10.534;2024-01-25T05:56:44;5.30;90.00
21734;DHT22;11029;47.820;10.534;2024-01-25T05:59:30;5.30;89.70
21734;DHT22;11029;47.820;10.534;2024-01-25T06:02:16;5.30;89.60
21734;DHT22;11029;47.820;10.534;2024-01-25T06:05:02;5.30;89.60
21734;DHT22;11029;47.820;10.534;2024-01-25T06:07:48;5.30;89.60
21734;DHT22;11029;47.820;10.534;2024-01-25T06:10:35;5.30;89.50
21734;DHT22;11029;47.820;10.534;2024-01-25T06:13:20;5.30;89.30
21734;DHT22;11029;47.820;10.534;2024-01-25T06:16:07;5.30;89.30
21734;DHT22;11029;47.820;10.534;2024-01-25T06:18:52;5.30;89.30
21734;DHT22;11029;47.820;10.534;2024-01-25T06:21:37;5.30;87.60
21734;DHT22;11029;47.820;10.534;2024-01-25T06:24:23;5.30;87.40
21734;DHT22;11029;47.820;10.534;2024-01-25T06:27:12;5.30;87.40
21734;DHT22;11029;47.820;10.534;2024-01-25T06:29:57;5.30;86.80
21734;DHT22;11029;47.820;10.534;2024-01-25T06:32:43;5.30;87.00
21734;DHT22;11029;47.820;10.534;2024-01-25T06:35:29;5.30;86.30
21734;DHT22;11029;47.820;10.534;2024-01-25T06:38:16;5.20;86.40
21734;DHT22;11029;47.820;10.534;2024-01-25T06:41:01;5.30;86.80
21734;DHT22;11029;47.820;10.534;2024-01-25T06:43:47;5.30;85.80
21734;DHT22;11029;47.820;10.534;2024-01-25T06:46:32;5.20;86.30
21734;DHT22;11029;47.820;10.534;2024-01-25T06:49:18;5.20;86.60
21734;DHT22;11029;47.820;10.534;2024-01-25T06:52:04;5.20;86.70
21734;DHT22;11029;47.820;10.534;2024-01-25T06:54:50;5.10;87.00
21734;DHT22;11029;47.820;10.534;2024-01-25T06:57:38;5.10;87.10
21734;DHT22;11029;47.820;10.534;2024-01-25T07:00:24;5.10;86.50
21734;DHT22;11029;47.820;10.534;2024-01-25T07:03:10;5.10;86.70
21734;DHT22;11029;47.820;10.534;2024-01-25T07:05:56;5.10;86.40
21734;DHT22;11029;47.820;10.534;2024-01-25T07:08:42;5.00;85.30
21734;DHT22;11029;47.820;10.534;2024-01-25T07:11:28;5.10;84.90
21734;DHT22;11029;47.820;10.534;2024-01-25T07:14:14;5.10;85.20
21734;DHT22;11029;47.820;10.534;2024-01-25T07:16:59;5.00;85.50
21734;DHT22;11029;47.820;10.534;2024-01-25T07:19:45;5.00;85.90
21734;DHT22;11029;47.820;10.534;2024-01-25T07:22:31;5.00;86.00
21734;DHT22;11029;47.820;10.534;2024-01-25T07:25:16;5.00;86.20
21734;DHT22;11029;47.820;10.534;2024-01-25T07:28:02;5.00;86.30
21734;DHT22;11029;47.820;10.534;2024-01-25T07:30:48;5.00;86.10
21734;DHT22;11029;47.820;10.534;2024-01-25T07:33:36;5.00;86.40
21734;DHT22;11029;47.820;10.534;2024-01-25T07:36:22;5.00;86.40
21734;DHT22;11029;47.820;10.534;2024-01-25T07:39:10;5.00;86.70
21734;DHT22;11029;47.820;10.534;2024-01-25T07:41:57;5.00;86.70
21734;DHT22;11029;47.820;10.534;2024-01-25T07:44:42;5.00;86.80
21734;DHT22;11029;47.820;10.534;2024-01-25T07:47:28;5.00;86.70
21734;DHT22;11029;47.820;10.534;2024-01-25T07:50:13;5.00;86.90
21734;DHT22;11029;47.820;10.534;2024-01-25T07:52:59;5.00;86.70
21734;DHT22;11029;47.820;10.534;2024-01-25T07:55:46;5.00;86.90
21734;DHT22;11029;47.820;10.534;2024-01-25T07:58:32;5.10;87.20
21734;DHT22;11029;47.820;10.534;2024-01-25T08:01:18;5.10;87.30
21734;DHT22;11029;47.820;10.534;2024-01-25T08:04:07;5.10;87.40
21734;DHT22;11029;47.820;10.534;2024-01-25T08:06:53;5.00;87.60
21734;DHT22;11029;47.820;10.534;2024-01-25T08:09:39;5.10;87.60
21734;DHT22;11029;47.820;10.534;2024-01-25T08:12:25;5.10;87.80
21734;DHT22;11029;47.820;10.534;2024-01-25T08:15:10;5.10;87.40
21734;DHT22;11029;47.820;10.534;2024-01-25T08:17:56;5.10;87.30
21734;DHT22;11029;47.820;10.534;2024-01-25T08:20:43;5.10;87.00
21734;DHT22;11029;47.820;10.534;2024-01-25T08:23:29;5.10;87.00
21734;DHT22;11029;47.820;10.534;2024-01-25T08:26:14;5.10;86.20
21734;DHT22;11029;47.820;10.534;2024-01-25T08:29:00;5.10;86.20
21734;DHT22;11029;47.820;10.534;2024-01-25T08:31:46;5.10;86.30
21734;DHT22;11029;47.820;10.534;2024-01-25T08:34:32;5.10;86.50
21734;DHT22;11029;47.820;10.534;2024-01-25T08:37:17;5.20;86.00
21734;DHT22;11029;47.820;10.534;2024-01-25T08:40:04;5.20;86.20
21734;DHT22;11029;47.820;10.534;2024-01-25T08:42:51;5.20;85.60
21734;DHT22;11029;47.820;10.534;2024-01-25T08:45:37;5.20;85.10
21734;DHT22;11029;47.820;10.534;2024-01-25T08:48:23;5.20;84.80
21734;DHT22;11029;47.820;10.534;2024-01-25T08:51:10;5.20;84.80
21734;DHT22;11029;47.820;10.534;2024-01-25T08:53:56;5.20;84.70
21734;DHT22;11029;47.820;10.534;2024-01-25T08:56:42;5.20;84.20
21734;DHT22;11029;47.820;10.534;2024-01-25T08:59:27;5.20;83.90
21734;DHT22;11029;47.820;10.534;2024-01-25T09:02:14;5.20;83.90
21734;DHT22;11029;47.820;10.534;2024-01-25T09:05:00;5.30;83.30
21734;DHT22;11029;47.820;10.534;2024-01-25T09:07:47;5.30;83.70
21734;DHT22;11029;47.820;10.534;2024-01-25T09:10:33;5.40;83.50
21734;DHT22;11029;47.820;10.534;2024-01-25T09:13:19;5.50;83.40
21734;DHT22;11029;47.820;10.534;2024-01-25T09:16:05;5.80;83.50
21734;DHT22;11029;47.820;10.534;2024-01-25T09:18:51;5.90;82.70
21734;DHT22;11029;47.820;10.534;2024-01-25T09:21:40;6.00;82.00
21734;DHT22;11029;47.820;10.534;2024-01-25T09:24:26;6.20;82.10
21734;DHT22;11029;47.820;10.534;2024-01-25T09:27:12;6.40;80.90
21734;DHT22;11029;47.820;10.534;2024-01-25T09:29:58;6.40;79.70
21734;DHT22;11029;47.820;10.534;2024-01-25T09:32:45;6.60;80.10
21734;DHT22;11029;47.820;10.534;2024-01-25T09:35:33;6.60;79.40
21734;DHT22;11029;47.820;10.534;2024-01-25T09:38:19;6.70;77.80
21734;DHT22;11029;47.820;10.534;2024-01-25T09:41:05;6.60;78.30
21734;DHT22;11029;47.820;10.534;2024-01-25T09:43:51;6.60;78.50
21734;DHT22;11029;47.820;10.534;2024-01-25T09:46:37;6.40;79.10
21734;DHT22;11029;47.820;10.534;2024-01-25T09:49:23;6.30;78.80
21734;DHT22;11029;47.820;10.534;2024-01-25T09:52:12;6.20;78.60
21734;DHT22;11029;47.820;10.534;2024-01-25T09:54:59;6.30;78.80
21734;DHT22;11029;47.820;10.534;2024-01-25T09:57:46;6.40;79.40
21734;DHT22;11029;47.820;10.534;2024-01-25T10:00:32;6.40;78.10
21734;DHT22;11029;47.820;10.534;2024-01-25T10:03:18;6.30;78.80
21734;DHT22;11029;47.820;10.534;2024-01-25T10:06:05;6.30;79.10
21734;DHT22;11029;47.820;10.534;2024-01-25T10:08:53;6.30;79.40
21734;DHT22;11029;47.820;10.534;2024-01-25T10:11:38;6.30;79.80
21734;DHT22;11029;47.820;10.534;2024-01-25T10:14:31;6.20;79.90
21734;DHT22;11029;47.820;10.534;2024-01-25T10:17:17;6.20;78.70
21734;DHT22;11029;47.820;10.534;2024-01-25T10:20:05;6.30;78.40
21734;DHT22;11029;47.820;10.534;2024-01-25T10:22:56;6.30;78.80
21734;DHT22;11029;47.820;10.534;2024-01-25T10:25:44;6.60;79.30
21734;DHT22;11029;47.820;10.534;2024-01-25T10:28:30;6.70;79.20
21734;DHT22;11029;47.820;10.534;2024-01-25T10:31:17;6.80;77.60
21734;DHT22;11029;47.820;10.534;2024-01-25T10:34:03;6.70;78.30
21734;DHT22;11029;47.820;10.534;2024-01-25T10:36:51;6.50;79.70
21734;DHT22;11029;47.820;10.534;2024-01-25T10:39:38;6.50;79.60
21734;DHT22;11029;47.820;10.534;2024-01-25T10:42:24;6.40;79.20
21734;DHT22;11029;47.820;10.534;2024-01-25T10:45:10;6.30;79.10
21734;DHT22;11029;47.820;10.534;2024-01-25T10:47:56;6.30;80.40
21734;DHT22;11029;47.820;10.534;2024-01-25T10:50:44;6.50;80.30
21734;DHT22;11029;47.820;10.534;2024-01-25T10:53:33;6.40;79.50
21734;DHT22;11029;47.820;10.534;2024-01-25T10:56:20;6.40;79.50
21734;DHT22;11029;47.820;10.534;2024-01-25T10:59:06;6.50;78.80
21734;DHT22;11029;47.820;10.534;2024-01-25T11:01:54;6.40;79.10
21734;DHT22;11029;47.820;10.534;2024-01-25T11:04:40;6.50;79.50
21734;DHT22;11029;47.820;10.534;2024-01-25T11:07:26;6.40;79.80
21734;DHT22;11029;47.820;10.534;2024-01-25T11:10:23;6.50;81.30
21734;DHT22;11029;47.820;10.534;2024-01-25T11:13:14;6.50;81.30
21734;DHT22;11029;47.820;10.534;2024-01-25T11:19:04;6.60;80.90
21734;DHT22;11029;47.820;10.534;2024-01-25T11:21:52;6.60;79.60
21734;DHT22;11029;47.820;10.534;2024-01-25T11:24:38;6.70;79.90
21734;DHT22;11029;47.820;10.534;2024-01-25T11:27:24;6.80;79.10
21734;DHT22;11029;47.820;10.534;2024-01-25T11:30:10;7.00;78.90
21734;DHT22;11029;47.820;10.534;2024-01-25T11:32:58;7.00;76.50
21734;DHT22;11029;47.820;10.534;2024-01-25T11:35:54;6.80;77.90
21734;DHT22;11029;47.820;10.534;2024-01-25T11:38:40;6.90;78.10
21734;DHT22;11029;47.820;10.534;2024-01-25T11:41:25;6.90;77.50
21734;DHT22;11029;47.820;10.534;2024-01-25T11:44:12;6.90;77.90
21734;DHT22;11029;47.820;10.534;2024-01-25T11:46:59;7.10;78.90
21734;DHT22;11029;47.820;10.534;2024-01-25T11:49:44;7.10;77.70
21734;DHT22;11029;47.820;10.534;2024-01-25T11:52:31;6.90;78.10
21734;DHT22;11029;47.820;10.534;2024-01-25T11:55:19;6.80;78.30
21734;DHT22;11029;47.820;10.534;2024-01-25T11:58:04;6.70;76.90
21734;DHT22;11029;47.820;10.534;2024-01-25T12:00:50;6.80;77.10
21734;DHT22;11029;47.820;10.534;2024-01-25T12:03:36;6.80;77.40
21734;DHT22;11029;47.820;10.534;2024-01-25T12:06:23;6.80;76.90
21734;DHT22;11029;47.820;10.534;2024-01-25T12:09:10;6.90;77.70
21734;DHT22;11029;47.820;10.534;2024-01-25T12:11:56;7.10;77.10
21734;DHT22;11029;47.820;10.534;2024-01-25T12:14:43;7.30;77.00
21734;DHT22;11029;47.820;10.534;2024-01-25T12:17:30;7.50;73.20
21734;DHT22;11029;47.820;10.534;2024-01-25T12:20:15;7.30;73.50
21734;DHT22;11029;47.820;10.534;2024-01-25T12:23:02;7.20;75.10
21734;DHT22;11029;47.820;10.534;2024-01-25T12:25:47;7.20;75.90
21734;DHT22;11029;47.820;10.534;2024-01-25T12:28:34;7.20;75.50
21734;DHT22;11029;47.820;10.534;2024-01-25T12:31:20;7.20;74.20
21734;DHT22;11029;47.820;10.534;2024-01-25T12:34:13;7.20;76.00
21734;DHT22;11029;47.820;10.534;2024-01-25T12:37:03;7.40;73.10
21734;DHT22;11029;47.820;10.534;2024-01-25T12:39:53;7.50;73.50
21734;DHT22;11029;47.820;10.534;2024-01-25T12:42:39;7.70;73.50
21734;DHT22;11029;47.820;10.534;2024-01-25T12:45:25;7.60;73.20
21734;DHT22;11029;47.820;10.534;2024-01-25T12:48:11;7.50;75.50
21734;DHT22;11029;47.820;10.534;2024-01-25T12:50:57;7.60;74.30
21734;DHT22;11029;47.820;10.534;2024-01-25T12:53:43;7.60;73.90
21734;DHT22;11029;47.820;10.534;2024-01-25T12:56:29;7.30;74.60
21734;DHT22;11029;47.820;10.534;2024-01-25T12:59:16;7.00;76.40
21734;DHT22;11029;47.820;10.534;2024-01-25T13:02:01;7.20;77.20
21734;DHT22;11029;47.820;10.534;2024-01-25T13:04:48;7.30;77.60
21734;DHT22;11029;47.820;10.534;2024-01-25T13:07:34;7.10;77.70
21734;DHT22;11029;47.820;10.534;2024-01-25T13:10:19;7.30;78.20
21734;DHT22;11029;47.820;10.534;2024-01-25T13:13:05;7.50;77.70
21734;DHT22;11029;47.820;10.534;2024-01-25T13:15:50;7.50;77.90
21734;DHT22;11029;47.820;10.534;2024-01-25T13:18:36;7.30;78.20
21734;DHT22;11029;47.820;10.534;2024-01-25T13:21:22;7.20;78.60
21734;DHT22;11029;47.820;10.534;2024-01-25T13:24:08;7.00;78.80
21734;DHT22;11029;47.820;10.534;2024-01-25T13:26:53;6.90;79.30
21734;DHT22;11029;47.820;10.534;2024-01-25T13:29:39;6.90;79.30
21734;DHT22;11029;47.820;10.534;2024-01-25T13:32:24;6.90;79.60
21734;DHT22;11029;47.820;10.534;2024-01-25T13:35:09;6.70;80.00
21734;DHT22;11029;47.820;10.534;2024-01-25T13:37:55;6.70;80.10
21734;DHT22;11029;47.820;10.534;2024-01-25T13:40:46;6.60;81.00
21734;DHT22;11029;47.820;10.534;2024-01-25T13:43:31;6.50;81.70
21734;DHT22;11029;47.820;10.534;2024-01-25T13:46:16;6.50;81.90
21734;DHT22;11029;47.820;10.534;2024-01-25T13:49:05;6.50;81.80
21734;DHT22;11029;47.820;10.534;2024-01-25T13:51:51;6.40;82.20
21734;DHT22;11029;47.820;10.534;2024-01-25T13:54:36;6.40;82.40
21734;DHT22;11029;47.820;10.534;2024-01-25T13:57:21;6.50;82.70
21734;DHT22;11029;47.820;10.534;2024-01-25T14:00:10;6.40;83.10
21734;DHT22;11029;47.820;10.534;2024-01-25T14:02:57;6.40;83.00
21734;DHT22;11029;47.820;10.534;2024-01-25T14:05:43;6.40;83.20
21734;DHT22;11029;47.820;10.534;2024-01-25T14:08:28;6.40;83.30
21734;DHT22;11029;47.820;10.534;2024-01-25T14:11:15;6.30;83.90
21734;DHT22;11029;47.820;10.534;2024-01-25T14:14:01;6.40;82.00
21734;DHT22;11029;47.820;10.534;2024-01-25T14:16:47;6.20;82.00
21734;DHT22;11029;47.820;10.534;2024-01-25T14:19:33;6.30;82.00
21734;DHT22;11029;47.820;10.534;2024-01-25T14:22:19;6.40;82.80
21734;DHT22;11029;47.820;10.534;2024-01-25T14:25:16;6.30;83.80
21734;DHT22;11029;47.820;10.534;2024-01-25T14:28:01;6.50;83.50
21734;DHT22;11029;47.820;10.534;2024-01-25T14:30:47;6.50;83.20
21734;DHT22;11029;47.820;10.534;2024-01-25T14:33:33;6.50;83.80
21734;DHT22;11029;47.820;10.534;2024-01-25T14:36:19;6.50;83.70
21734;DHT22;11029;47.820;10.534;2024-01-25T14:39:05;6.60;84.30
21734;DHT22;11029;47.820;10.534;2024-01-25T14:41:52;6.70;83.20
21734;DHT22;11029;47.820;10.534;2024-01-25T14:44:42;6.70;83.10
21734;DHT22;11029;47.820;10.534;2024-01-25T14:47:29;6.70;83.40
21734;DHT22;11029;47.820;10.534;2024-01-25T14:50:14;6.60;83.70
21734;DHT22;11029;47.820;10.534;2024-01-25T14:53:00;6.60;83.80
21734;DHT22;11029;47.820;10.534;2024-01-25T14:55:45;6.60;83.70
21734;DHT22;11029;47.820;10.534;2024-01-25T14:58:31;6.30;84.40
21734;DHT22;11029;47.820;10.534;2024-01-25T15:01:17;6.40;84.90
21734;DHT22;11029;47.820;10.534;2024-01-25T15:04:04;6.40;85.00
21734;DHT22;11029;47.820;10.534;2024-01-25T15:06:50;6.50;84.60
21734;DHT22;11029;47.820;10.534;2024-01-25T15:09:35;6.60;84.40
21734;DHT22;11029;47.820;10.534;2024-01-25T15:12:21;6.50;84.20
21734;DHT22;11029;47.820;10.534;2024-01-25T15:15:07;6.40;83.60
21734;DHT22;11029;47.820;10.534;2024-01-25T15:17:53;6.40;84.10
21734;DHT22;11029;47.820;10.534;2024-01-25T15:20:39;6.30;84.20
21734;DHT22;11029;47.820;10.534;2024-01-25T15:23:25;6.30;84.80
21734;DHT22;11029;47.820;10.534;2024-01-25T15:26:11;6.20;86.10
21734;DHT22;11029;47.820;10.534;2024-01-25T15:28:56;6.20;86.70
21734;DHT22;11029;47.820;10.534;2024-01-25T15:31:51;6.20;87.40
21734;DHT22;11029;47.820;10.534;2024-01-25T15:34:36;6.10;88.20
21734;DHT22;11029;47.820;10.534;2024-01-25T15:37:22;6.10;88.40
21734;DHT22;11029;47.820;10.534;2024-01-25T15:40:08;6.00;89.10
21734;DHT22;11029;47.820;10.534;2024-01-25T15:42:57;6.00;89.30
21734;DHT22;11029;47.820;10.534;2024-01-25T15:45:43;6.00;89.50
21734;DHT22;11029;47.820;10.534;2024-01-25T15:48:28;6.00;89.70
21734;DHT22;11029;47.820;10.534;2024-01-25T15:51:14;6.00;90.00
21734;DHT22;11029;47.820;10.534;2024-01-25T15:54:00;5.90;90.40
21734;DHT22;11029;47.820;10.534;2024-01-25T15:56:46;5.90;90.90
21734;DHT22;11029;47.820;10.534;2024-01-25T15:59:32;5.90;90.90
21734;DHT22;11029;47.820;10.534;2024-01-25T16:02:18;5.90;90.70
21734;DHT22;11029;47.820;10.534;2024-01-25T16:05:04;5.90;90.60
21734;DHT22;11029;47.820;10.534;2024-01-25T16:07:49;5.90;90.60
21734;DHT22;11029;47.820;10.534;2024-01-25T16:10:35;5.90;90.50
21734;DHT22;11029;47.820;10.534;2024-01-25T16:13:20;5.90;90.60
21734;DHT22;11029;47.820;10.534;2024-01-25T16:16:06;5.90;90.70
21734;DHT22;11029;47.820;10.534;2024-01-25T16:18:52;5.90;90.60
21734;DHT22;11029;47.820;10.534;2024-01-25T16:21:38;5.90;90.50
21734;DHT22;11029;47.820;10.534;2024-01-25T16:24:23;5.90;90.50
21734;DHT22;11029;47.820;10.534;2024-01-25T16:27:09;5.90;90.40
21734;DHT22;11029;47.820;10.534;2024-01-25T16:29:55;5.90;90.40
21734;DHT22;11029;47.820;10.534;2024-01-25T16:32:40;5.90;90.50
21734;DHT22;11029;47.820;10.534;2024-01-25T16:35:26;5.90;90.60
21734;DHT22;11029;47.820;10.534;2024-01-25T16:38:11;5.90;90.90
21734;DHT22;11029;47.820;10.534;2024-01-25T16:40:57;5.80;91.20
21734;DHT22;11029;47.820;10.534;2024-01-25T16:43:42;5.80;91.30
21734;DHT22;11029;47.820;10.534;2024-01-25T16:46:27;5.80;91.30
21734;DHT22;11029;47.820;10.534;2024-01-25T16:49:15;5.80;91.10
21734;DHT22;11029;47.820;10.534;2024-01-25T16:52:01;5.90;91.20
21734;DHT22;11029;47.820;10.534;2024-01-25T16:54:46;5.90;91.10
21734;DHT22;11029;47.820;10.534;2024-01-25T16:57:32;5.90;91.00
21734;DHT22;11029;47.820;10.534;2024-01-25T17:00:18;5.90;91.20
21734;DHT22;11029;47.820;10.534;2024-01-25T17:03:07;6.00;91.00
21734;DHT22;11029;47.820;10.534;2024-01-25T17:05:53;6.00;90.70
21734;DHT22;11029;47.820;10.534;2024-01-25T17:08:38;6.00;90.60
21734;DHT22;11029;47.820;10.534;2024-01-25T17:11:24;5.90;90.90
21734;DHT22;11029;47.820;10.534;2024-01-25T17:14:11;6.00;91.00
21734;DHT22;11029;47.820;10.534;2024-01-25T17:16:57;6.00;90.60
21734;DHT22;11029;47.820;10.534;2024-01-25T17:19:42;5.90;90.70
21734;DHT22;11029;47.820;10.534;2024-01-25T17:22:28;6.00;90.90
21734;DHT22;11029;47.820;10.534;2024-01-25T17:25:15;5.90;90.70
21734;DHT22;11029;47.820;10.534;2024-01-25T17:28:02;5.90;90.70
21734;DHT22;11029;47.820;10.534;2024-01-25T17:30:48;6.00;90.80
21734;DHT22;11029;47.820;10.534;2024-01-25T17:33:34;6.00;90.90